createdAt,value
2019-03-31T00:03:38.999Z,118.37
2019-03-31T00:07:42.614Z,130.20
2019-03-31T00:11:46.188Z,102.87
2019-03-31T00:15:49.787Z,101.33
2019-03-31T00:19:53.371Z,93.07
2019-03-31T00:23:56.951Z,89.70
2019-03-31T00:28:00.555Z,95.97
2019-03-31T00:32:04.215Z,100.33
2019-03-31T00:36:07.824Z,94.13
2019-03-31T00:40:11.464Z,89.15
2019-03-31T00:44:15.047Z,93.15
2019-03-31T00:48:18.652Z,86.92
2019-03-31T00:52:22.261Z,90.80
2019-03-31T00:56:25.836Z,97.12
2019-03-31T01:00:47.412Z,106.27
2019-03-31T01:04:51.271Z,98.35
2019-03-31T01:08:56.472Z,94.87
2019-03-31T01:17:04.412Z,113.10
2019-03-31T01:21:08.068Z,109.75
2019-03-31T01:25:12.800Z,110.15
2019-03-31T01:29:17.244Z,100.30
2019-03-31T01:33:21.128Z,112.45
2019-03-31T01:37:25.622Z,113.70
2019-03-31T01:41:29.216Z,110.60
2019-03-31T01:45:32.804Z,118.00
2019-03-31T01:49:36.483Z,110.95
2019-03-31T01:53:40.092Z,111.35
2019-03-31T01:57:43.681Z,124.30
2019-03-31T02:01:47.341Z,115.60
2019-03-31T02:05:50.928Z,121.80
2019-03-31T02:09:54.531Z,125.97
2019-03-31T02:13:58.150Z,125.45
2019-03-31T02:18:01.723Z,137.28
2019-03-31T02:22:05.309Z,123.38
2019-03-31T02:26:08.896Z,127.37
2019-03-31T02:30:12.848Z,134.22
2019-03-31T02:34:16.461Z,140.20
2019-03-31T02:38:20.045Z,137.52
2019-03-31T02:42:23.642Z,136.45
2019-03-31T02:46:27.234Z,152.45
2019-03-31T02:50:36.508Z,145.65
2019-03-31T02:54:40.110Z,141.47
2019-03-31T02:58:44.034Z,150.12
2019-03-31T03:02:47.965Z,139.82
2019-03-31T03:06:53.793Z,125.45
2019-03-31T03:11:00.480Z,124.78
2019-03-31T03:15:04.527Z,124.60
2019-03-31T03:19:08.124Z,113.25
2019-03-31T03:23:11.715Z,122.78
2019-03-31T03:27:15.322Z,117.65
2019-03-31T03:31:19.055Z,100.72
2019-03-31T03:35:22.817Z,113.57
2019-03-31T03:39:26.465Z,99.07
2019-03-31T03:43:30.052Z,100.27
2019-03-31T03:47:33.675Z,98.25
2019-03-31T03:51:37.258Z,86.42
2019-03-31T03:55:40.864Z,93.33
2019-03-31T03:59:44.449Z,87.82
2019-03-31T04:03:48.036Z,91.65
2019-03-31T04:07:51.641Z,94.50
2019-03-31T04:11:55.231Z,85.20
2019-03-31T04:15:59.000Z,75.25
2019-03-31T04:20:02.593Z,71.70
2019-03-31T04:24:06.260Z,63.40
2019-03-31T04:28:09.877Z,65.27
2019-03-31T04:32:13.448Z,69.90
2019-03-31T04:36:17.075Z,70.75
2019-03-31T04:40:20.640Z,74.95
2019-03-31T04:44:24.233Z,64.87
2019-03-31T04:48:27.823Z,65.62
2019-03-31T04:52:31.405Z,64.00
2019-03-31T04:56:35.003Z,56.98
2019-03-31T05:00:38.612Z,59.63
2019-03-31T05:04:42.193Z,51.90
2019-03-31T05:08:45.783Z,48.65
2019-03-31T05:12:49.363Z,50.85
2019-03-31T05:16:52.976Z,47.75
2019-03-31T05:20:56.648Z,39.60
2019-03-31T05:25:00.391Z,55.80
2019-03-31T05:29:03.927Z,43.02
2019-03-31T05:33:07.589Z,55.15
2019-03-31T05:37:11.196Z,49.98
2019-03-31T05:41:14.809Z,43.40
2019-03-31T05:45:18.389Z,39.92
2019-03-31T05:49:21.971Z,40.65
2019-03-31T05:53:25.561Z,31.80
2019-03-31T05:57:29.155Z,39.33
2019-03-31T06:01:32.764Z,39.70
2019-03-31T06:05:36.348Z,29.45
2019-03-31T06:09:39.928Z,42.30
2019-03-31T06:13:43.593Z,28.15
2019-03-31T06:17:47.196Z,21.10
2019-03-31T06:21:50.801Z,35.88
2019-03-31T06:25:54.380Z,26.53
2019-03-31T06:29:57.975Z,27.07
2019-03-31T06:34:01.631Z,25.35
2019-03-31T06:38:05.247Z,26.35
2019-03-31T06:42:08.848Z,17.87
2019-03-31T06:46:12.424Z,18.42
2019-03-31T06:50:16.157Z,22.22
2019-03-31T06:54:19.736Z,19.85
2019-03-31T06:58:23.348Z,17.10
2019-03-31T07:02:26.947Z,14.80
2019-03-31T07:06:30.544Z,12.50
2019-03-31T07:10:34.128Z,12.23
2019-03-31T07:14:37.708Z,8.40
2019-03-31T07:18:41.292Z,9.85
2019-03-31T07:22:44.893Z,9.98
2019-03-31T07:26:48.477Z,10.05
2019-03-31T07:30:52.060Z,10.90
2019-03-31T07:34:55.645Z,19.40
2019-03-31T07:38:59.396Z,13.95
2019-03-31T07:43:03.225Z,18.42
2019-03-31T07:47:06.886Z,16.27
2019-03-31T07:51:10.648Z,19.85
2019-03-31T07:55:14.726Z,14.43
2019-03-31T07:59:18.381Z,16.93
2019-03-31T08:03:22.020Z,12.93
2019-03-31T08:07:25.723Z,23.55
2019-03-31T08:11:29.358Z,16.07
2019-03-31T08:15:32.991Z,18.17
2019-03-31T08:19:36.592Z,15.03
2019-03-31T08:23:40.205Z,17.07
2019-03-31T08:27:43.802Z,14.78
2019-03-31T08:31:47.390Z,20.72
2019-03-31T08:35:50.967Z,24.02
2019-03-31T08:39:54.544Z,22.70
2019-03-31T08:43:58.165Z,19.45
2019-03-31T08:48:01.845Z,20.80
2019-03-31T08:52:05.491Z,13.20
2019-03-31T08:56:09.075Z,21.47
2019-03-31T09:00:14.969Z,16.67
2019-03-31T09:04:18.543Z,19.12
2019-03-31T09:08:22.195Z,14.25
2019-03-31T09:12:25.784Z,18.80
2019-03-31T09:16:29.392Z,25.43
2019-03-31T09:20:32.995Z,7.75
2019-03-31T09:24:36.597Z,15.55
2019-03-31T09:28:40.201Z,10.78
2019-03-31T09:32:43.785Z,19.80
2019-03-31T09:36:47.374Z,18.92
2019-03-31T09:40:50.960Z,16.12
2019-03-31T09:44:54.568Z,15.95
2019-03-31T09:48:58.171Z,20.32
2019-03-31T09:53:01.756Z,14.38
2019-03-31T09:57:05.484Z,16.10
2019-03-31T10:01:09.293Z,14.50
2019-03-31T10:05:16.257Z,12.98
2019-03-31T10:09:20.282Z,14.33
2019-03-31T10:13:26.942Z,14.60
2019-03-31T10:17:30.768Z,18.25
2019-03-31T10:21:34.502Z,12.30
2019-03-31T10:25:38.273Z,16.52
2019-03-31T10:29:41.868Z,9.28
2019-03-31T10:33:45.472Z,9.68
2019-03-31T10:37:49.064Z,15.05
2019-03-31T10:41:52.634Z,13.60
2019-03-31T10:45:56.228Z,13.65
2019-03-31T10:49:59.836Z,13.48
2019-03-31T10:54:04.723Z,11.10
2019-03-31T10:58:08.418Z,6.03
2019-03-31T11:02:11.996Z,11.78
2019-03-31T11:06:15.586Z,11.77
2019-03-31T11:10:19.216Z,9.08
2019-03-31T11:14:22.795Z,6.62
2019-03-31T11:18:26.393Z,18.00
2019-03-31T11:22:37.516Z,10.23
2019-03-31T11:26:41.103Z,9.00
2019-03-31T11:30:44.884Z,10.32
2019-03-31T11:34:48.726Z,5.80
2019-03-31T11:38:52.522Z,4.37
2019-03-31T11:42:56.172Z,5.87
2019-03-31T11:46:59.973Z,10.70
2019-03-31T11:51:03.648Z,9.50
2019-03-31T11:55:08.851Z,7.62
2019-03-31T11:59:12.423Z,11.10
2019-03-31T12:03:16.012Z,10.95
2019-03-31T12:07:27.875Z,9.43
2019-03-31T12:11:24.925Z,6.62
2019-03-31T12:15:28.544Z,10.40
2019-03-31T12:19:32.158Z,5.50
2019-03-31T12:23:35.741Z,6.15
2019-03-31T12:27:39.327Z,3.70
2019-03-31T12:31:42.937Z,7.00
2019-03-31T12:35:46.537Z,6.37
2019-03-31T12:39:50.107Z,8.48
2019-03-31T12:43:53.688Z,6.10
2019-03-31T12:47:57.626Z,7.78
2019-03-31T12:52:02.543Z,3.63
2019-03-31T12:56:06.138Z,7.70
2019-03-31T13:00:10.228Z,2.83
2019-03-31T13:04:13.823Z,15.18
2019-03-31T13:08:17.417Z,8.35
2019-03-31T13:12:21.025Z,7.90
2019-03-31T13:16:24.681Z,6.83
2019-03-31T13:20:28.256Z,4.67
2019-03-31T13:24:31.844Z,6.97
2019-03-31T13:28:35.424Z,5.97
2019-03-31T13:32:39.024Z,9.05
2019-03-31T13:36:42.632Z,6.58
2019-03-31T13:40:46.213Z,4.95
2019-03-31T13:44:49.801Z,6.05
2019-03-31T13:48:53.388Z,12.13
2019-03-31T13:52:57.061Z,8.15
2019-03-31T13:57:00.641Z,5.50
2019-03-31T14:01:16.890Z,7.75
2019-03-31T14:09:23.259Z,7.47
2019-03-31T14:13:26.893Z,10.75
2019-03-31T14:17:30.565Z,3.93
2019-03-31T14:21:34.143Z,9.43
2019-03-31T14:25:37.738Z,14.10
2019-03-31T14:29:42.548Z,13.70
2019-03-31T14:33:46.396Z,9.50
2019-03-31T14:37:50.011Z,10.37
2019-03-31T14:41:53.587Z,6.73
2019-03-31T14:45:57.177Z,11.35
2019-03-31T14:50:00.782Z,6.08
2019-03-31T14:54:04.641Z,9.23
2019-03-31T14:58:08.645Z,13.47
2019-03-31T15:02:12.425Z,12.93
2019-03-31T15:06:16.007Z,9.40
2019-03-31T15:10:19.590Z,7.70
2019-03-31T15:14:23.500Z,13.13
2019-03-31T15:18:27.131Z,10.88
2019-03-31T15:22:30.711Z,8.23
2019-03-31T15:26:34.299Z,11.50
2019-03-31T15:30:37.885Z,10.70
2019-03-31T15:34:41.472Z,11.88
2019-03-31T15:38:45.117Z,10.65
2019-03-31T15:42:48.716Z,7.37
2019-03-31T15:46:52.691Z,15.25
2019-03-31T15:50:56.336Z,13.60
2019-03-31T15:54:59.924Z,10.55
2019-03-31T15:59:03.537Z,14.63
2019-03-31T16:03:07.140Z,11.40
2019-03-31T16:07:10.736Z,17.50
2019-03-31T16:11:14.326Z,8.58
2019-03-31T16:15:18.045Z,8.65
2019-03-31T16:19:21.653Z,15.18
2019-03-31T16:23:25.341Z,8.80
2019-03-31T16:27:28.922Z,10.32
2019-03-31T16:31:32.516Z,12.63
2019-03-31T16:35:36.097Z,10.00
2019-03-31T16:39:39.709Z,16.17
2019-03-31T16:43:43.337Z,11.33
2019-03-31T16:47:46.943Z,11.03
2019-03-31T16:51:50.496Z,11.35
2019-03-31T16:55:54.084Z,13.95
2019-03-31T16:59:57.687Z,11.43
2019-03-31T17:04:01.298Z,17.37
2019-03-31T17:08:04.952Z,13.68
2019-03-31T17:12:08.553Z,13.22
2019-03-31T17:16:15.324Z,12.00
2019-03-31T17:20:17.537Z,11.20
2019-03-31T17:24:21.140Z,18.02
2019-03-31T17:28:24.786Z,13.32
2019-03-31T17:32:28.319Z,13.97
2019-03-31T17:36:31.897Z,10.48
2019-03-31T17:40:35.501Z,14.03
2019-03-31T17:44:39.263Z,9.95
2019-03-31T17:48:42.864Z,11.05
2019-03-31T17:52:46.439Z,8.08
2019-03-31T17:56:50.029Z,16.23
2019-03-31T18:00:53.620Z,10.85
2019-03-31T18:04:57.217Z,8.55
2019-03-31T18:09:01.167Z,13.55
2019-03-31T18:13:04.749Z,10.43
2019-03-31T18:17:08.349Z,7.87
2019-03-31T18:21:11.928Z,13.38
2019-03-31T18:25:15.597Z,10.55
2019-03-31T18:29:19.108Z,14.23
2019-03-31T18:33:22.891Z,13.53
2019-03-31T18:37:26.554Z,5.58
2019-03-31T18:41:30.255Z,7.00
2019-03-31T18:45:34.254Z,9.33
2019-03-31T18:49:38.256Z,12.80
2019-03-31T18:53:49.393Z,9.73
2019-03-31T18:58:06.576Z,6.25
2019-03-31T19:02:26.968Z,11.45
2019-03-31T19:06:32.210Z,10.58
2019-03-31T19:10:49.997Z,5.50
2019-03-31T19:14:55.692Z,9.33
2019-03-31T19:23:10.488Z,6.83
2019-03-31T19:31:23.539Z,6.10
2019-03-31T19:35:28.800Z,4.62
2019-03-31T19:39:40.349Z,6.33
2019-03-31T19:43:46.221Z,8.85
2019-03-31T19:47:54.389Z,12.68
2019-03-31T19:52:06.212Z,8.00
2019-03-31T19:56:25.819Z,5.63
2019-03-31T20:05:14.057Z,7.03
2019-03-31T20:09:19.679Z,6.17
2019-03-31T20:13:31.168Z,4.25
2019-03-31T20:17:42.154Z,1.85
2019-03-31T20:21:47.824Z,6.78
2019-03-31T20:25:59.614Z,5.10
2019-03-31T20:30:08.188Z,9.55
2019-03-31T20:34:13.672Z,6.92
2019-03-31T20:38:19.169Z,5.10
2019-03-31T20:46:36.854Z,13.00
2019-03-31T20:50:40.408Z,5.30
2019-03-31T20:54:43.992Z,5.25
2019-03-31T20:58:47.767Z,7.47
2019-03-31T21:02:51.358Z,5.53
2019-03-31T21:06:55.461Z,3.47
2019-03-31T21:10:59.051Z,2.80
2019-03-31T21:15:03.030Z,3.98
2019-03-31T21:19:06.604Z,6.62
2019-03-31T21:23:10.276Z,6.40
2019-03-31T21:27:13.881Z,5.05
2019-03-31T21:31:18.303Z,8.08
2019-03-31T21:35:21.886Z,6.60
2019-03-31T21:39:25.484Z,6.15
2019-03-31T21:43:29.054Z,2.17
2019-03-31T21:47:32.657Z,3.40
2019-03-31T21:51:36.231Z,5.53
2019-03-31T21:55:39.809Z,2.95
2019-03-31T21:59:43.448Z,2.45
2019-03-31T22:03:47.116Z,5.83
2019-03-31T22:07:50.722Z,2.77
2019-03-31T22:11:54.320Z,7.95
2019-03-31T22:15:57.916Z,5.17
2019-03-31T22:20:01.647Z,2.12
2019-03-31T22:24:05.262Z,6.05
2019-03-31T22:28:08.831Z,1.80
2019-03-31T22:32:12.420Z,9.03
2019-03-31T22:36:21.469Z,2.10
2019-03-31T22:40:25.064Z,7.03
2019-03-31T22:44:28.640Z,4.35
2019-03-31T22:48:32.220Z,3.30
2019-03-31T22:52:35.791Z,5.90
2019-03-31T22:56:39.367Z,1.57
2019-03-31T23:00:42.940Z,4.97
2019-03-31T23:04:46.525Z,3.60
2019-03-31T23:08:50.104Z,4.60
2019-03-31T23:12:53.679Z,2.52
2019-03-31T23:16:57.260Z,8.35
2019-03-31T23:21:00.840Z,2.80
2019-03-31T23:25:05.371Z,5.70
2019-03-31T23:29:09.870Z,3.00
2019-03-31T23:33:13.431Z,1.77
2019-03-31T23:37:17.023Z,1.60
2019-03-31T23:41:20.604Z,3.03
2019-03-31T23:45:24.180Z,2.10
2019-03-31T23:49:27.760Z,2.07
2019-03-31T23:53:31.346Z,1.92
2019-03-31T23:57:41.552Z,4.03
